Rural Hall, NC (27098)

6:55 AM EST on February 11, 2016 (GMT -0500)
W4UFM - 52N at Hwy 65 | | Change Station
CLOSE
Current Station
Personal Weather Station
Location: Winston-Salem, NC
Elevation: 971 ft
Nearby Weather Stations

Elev 971 ft 36.20 °N, 80.31 °W | Updated 5 seconds ago

Clear
Clear
17.1 °F
Feels Like 17 °F
N
0.0
Wind Variable Wind from SSW
Gusts 0.0 mph

Today
High -- | Low -- °F
--% Chance of Precip.
Yesterday
High -- | Low -- °F
Precip. -- in
Pressure 30.15 in
Visibility 10.0 miles
Clouds Clear
Windchill 17 °F
Dew Point 2 °F
Humidity 51%
Rainfall 0.00 in
Snow Depth Not available.
7:13 AM 5:57 PM
Waxing Crescent, 11% visible
METAR KINT 111054Z AUTO 26003KT 10SM CLR M07/M17 A3012 RMK AO2 SLP209 T10671167
Pressure 30.15 in
Visibility 10.0 miles
Clouds Clear
Windchill 17 °F
Dew Point 2 °F
Humidity 51%
Rainfall 0.00 in
Snow Depth Not available.
7:13 AM 5:57 PM
Waxing Crescent, 11% visible
METAR KINT 111054Z AUTO 26003KT 10SM CLR M07/M17 A3012 RMK AO2 SLP209 T10671167

10-Day Weather Forecast

Almanac

Astronomy

Feb. 11, 2016 Rise Set
Actual Time
Civil Twilight
Nautical Twilight
Astronomical Twilight
Moon
Length of Visible Light
Length of Day
Tomorrow will be .
, % of the Moon is Illuminated

Today's Extremes

State Highs State Lows

Community

WunderPhotos

Upload Photos

1,892,030 photos uploaded!

WunderBlog® & News

Nearby

Air Quality

  Air Quality AQ Index Pollutant
Not available.

Snow Depth

Station Depth Elevation

Earthquake Activity

City Distance Mag. Time & Date
Minimum magnitude displayed is 2.5.

Coastal Water Temperatures

Place Temperature

Stations

Nearby Weather Stations

Station Location Temp. Windchill Dew Point Humidity Wind Precip. Elev Updated Type
                   

Watches & Warnings

There are currently no watches in effect.